createdAt,value
2022-07-25T00:11:54.489Z,5443.11084
2022-07-25T00:26:56.714Z,6192.44238
2022-07-25T00:41:59.689Z,4579.66846
2022-07-25T00:57:02.172Z,9009.72461
2022-07-25T01:12:04.641Z,4686.17236
2022-07-25T01:27:07.799Z,3962.19946
2022-07-25T01:42:19.536Z,6087.20605
2022-07-25T01:57:21.988Z,4446.53857
2022-07-25T02:12:27.599Z,2481.28784
2022-07-25T02:27:29.914Z,1616.57739
2022-07-25T02:42:32.341Z,1132.23804
2022-07-25T02:57:34.642Z,811.45844
2022-07-25T03:12:37.105Z,560.41345
2022-07-25T03:27:39.471Z,238.36592
2022-07-25T03:42:41.996Z,63.39519
2022-07-25T03:57:44.271Z,12.67904
2022-07-25T04:12:46.555Z,1.2679
2022-07-25T04:27:48.844Z,0
2022-07-25T04:42:51.108Z,0
2022-07-25T04:57:53.429Z,0
2022-07-25T05:12:55.730Z,0
2022-07-25T05:27:58.191Z,0
2022-07-25T05:43:03.282Z,0
2022-07-25T05:58:06.172Z,0
2022-07-25T06:13:08.451Z,0
2022-07-25T06:28:12.666Z,0
2022-07-25T06:43:20.539Z,0
2022-07-25T06:58:24.050Z,0
2022-07-25T07:13:28.497Z,0
2022-07-25T07:28:30.878Z,0
2022-07-25T07:43:33.166Z,0
2022-07-25T07:58:35.624Z,0
2022-07-25T08:13:37.923Z,0
2022-07-25T08:28:40.240Z,0
2022-07-25T08:43:42.697Z,0
2022-07-25T08:58:44.995Z,0
2022-07-25T09:13:47.292Z,0
2022-07-25T09:28:49.786Z,0
2022-07-25T09:43:52.142Z,0
2022-07-25T09:58:54.436Z,0
2022-07-25T10:13:56.747Z,0
2022-07-25T10:28:59.045Z,0
2022-07-25T10:44:01.420Z,0
2022-07-25T10:59:03.902Z,0
2022-07-25T11:14:06.415Z,0
2022-07-25T11:29:09.344Z,0
2022-07-25T11:44:11.944Z,5.07162
2022-07-25T11:59:14.293Z,45.64454
2022-07-25T12:14:16.599Z,191.45348
2022-07-25T12:29:18.877Z,485.60715
2022-07-25T12:44:21.312Z,890.06848
2022-07-25T12:59:23.601Z,1762.38623
2022-07-25T13:14:26.468Z,2391.2666
2022-07-25T13:29:28.871Z,3908.94751
2022-07-25T13:44:31.844Z,4951.16455
2022-07-25T13:59:34.141Z,6004.79248
2022-07-25T14:14:36.623Z,7749.42822
2022-07-25T14:29:38.941Z,8706.69531
2022-07-25T14:44:41.329Z,9416.72168
2022-07-25T14:59:43.649Z,9415.4541
2022-07-25T15:14:46.639Z,10088.71094
2022-07-25T15:29:48.961Z,10677.01758
2022-07-25T15:45:03.856Z,10802.54004
2022-07-25T16:00:17.843Z,10602.21191
2022-07-25T16:15:20.137Z,10083.63867
2022-07-25T16:30:22.547Z,9859.21973
2022-07-25T16:45:24.824Z,9297.53906
2022-07-25T17:00:27.127Z,8866.45117
2022-07-25T17:15:29.456Z,8349.14648
2022-07-25T17:30:31.854Z,7900.30859
2022-07-25T17:45:34.184Z,7419.77295
2022-07-25T18:00:36.462Z,7000.09668
2022-07-25T18:15:38.883Z,6827.66211
2022-07-25T18:30:41.264Z,6528.43652
2022-07-25T18:45:43.751Z,6226.67578
2022-07-25T19:00:47.138Z,6011.13184
2022-07-25T19:15:49.569Z,5943.93311
2022-07-25T19:30:51.962Z,5879.27002
2022-07-25T19:45:54.450Z,5895.75293
2022-07-25T20:00:56.865Z,5897.02051
2022-07-25T20:15:59.180Z,5987.04199
2022-07-25T20:31:01.617Z,6110.02832
2022-07-25T20:46:08.848Z,6661.56641
2022-07-25T21:01:11.761Z,6484.06006
2022-07-25T21:16:14.061Z,6529.70459
2022-07-25T21:31:16.412Z,6601.9751
2022-07-25T21:46:18.826Z,6505.61426
2022-07-25T22:01:21.659Z,6519.56152
2022-07-25T22:16:24.120Z,6527.16895
2022-07-25T22:31:26.491Z,6409.25391
2022-07-25T22:46:29.032Z,6432.07617
2022-07-25T23:01:31.483Z,6566.47363
2022-07-25T23:16:33.864Z,6771.87402
2022-07-25T23:31:36.269Z,7580.79688
2022-07-25T23:46:38.691Z,7734.21338
